sensor_id;sensor_type;location;lat;lon;timestamp;P1;durP1;ratioP1;P2;durP2;ratioP2
33862;SDS011;20158;51.436;-2.742;2023-09-19T00:01:57;8.48;;;2.95;;
33862;SDS011;20158;51.436;-2.742;2023-09-19T00:04:23;9.55;;;2.38;;
33862;SDS011;20158;51.436;-2.742;2023-09-19T00:06:54;10.85;;;3.40;;
33862;SDS011;20158;51.436;-2.742;2023-09-19T00:09:20;10.63;;;2.40;;
33862;SDS011;20158;51.436;-2.742;2023-09-19T00:11:46;11.18;;;3.03;;
33862;SDS011;20158;51.436;-2.742;2023-09-19T00:14:14;9.70;;;2.58;;
33862;SDS011;20158;51.436;-2.742;2023-09-19T00:16:40;8.98;;;2.65;;
33862;SDS011;20158;51.436;-2.742;2023-09-19T00:19:06;9.73;;;2.80;;
33862;SDS011;20158;51.436;-2.742;2023-09-19T00:21:33;11.85;;;2.47;;
33862;SDS011;20158;51.436;-2.742;2023-09-19T00:23:59;8.25;;;2.10;;
33862;SDS011;20158;51.436;-2.742;2023-09-19T00:26:28;12.30;;;3.80;;
33862;SDS011;20158;51.436;-2.742;2023-09-19T00:28:56;11.50;;;3.38;;
33862;SDS011;20158;51.436;-2.742;2023-09-19T00:31:22;11.25;;;2.70;;
33862;SDS011;20158;51.436;-2.742;2023-09-19T00:33:49;6.57;;;2.63;;
33862;SDS011;20158;51.436;-2.742;2023-09-19T00:36:15;9.18;;;2.42;;
33862;SDS011;20158;51.436;-2.742;2023-09-19T00:38:41;11.82;;;3.13;;
33862;SDS011;20158;51.436;-2.742;2023-09-19T00:41:10;10.30;;;3.05;;
33862;SDS011;20158;51.436;-2.742;2023-09-19T00:43:35;11.05;;;3.20;;
33862;SDS011;20158;51.436;-2.742;2023-09-19T00:46:01;7.35;;;2.55;;
33862;SDS011;20158;51.436;-2.742;2023-09-19T00:48:29;9.65;;;2.90;;
33862;SDS011;20158;51.436;-2.742;2023-09-19T00:50:57;8.82;;;2.63;;
33862;SDS011;20158;51.436;-2.742;2023-09-19T00:53:27;8.30;;;2.50;;
33862;SDS011;20158;51.436;-2.742;2023-09-19T00:55:53;8.77;;;3.00;;
33862;SDS011;20158;51.436;-2.742;2023-09-19T00:58:21;5.88;;;2.35;;
33862;SDS011;20158;51.436;-2.742;2023-09-19T01:00:48;7.82;;;2.65;;
33862;SDS011;20158;51.436;-2.742;2023-09-19T01:03:17;11.05;;;2.75;;
33862;SDS011;20158;51.436;-2.742;2023-09-19T01:05:44;7.13;;;2.85;;
33862;SDS011;20158;51.436;-2.742;2023-09-19T01:08:10;11.27;;;2.95;;
33862;SDS011;20158;51.436;-2.742;2023-09-19T01:10:38;8.10;;;2.83;;
33862;SDS011;20158;51.436;-2.742;2023-09-19T01:13:31;8.27;;;3.15;;
33862;SDS011;20158;51.436;-2.742;2023-09-19T01:18:52;9.25;;;3.40;;
33862;SDS011;20158;51.436;-2.742;2023-09-19T01:29:48;7.80;;;2.42;;
33862;SDS011;20158;51.436;-2.742;2023-09-19T01:32:19;5.47;;;2.40;;
33862;SDS011;20158;51.436;-2.742;2023-09-19T01:34:54;8.93;;;2.80;;
33862;SDS011;20158;51.436;-2.742;2023-09-19T01:37:35;9.18;;;2.33;;
33862;SDS011;20158;51.436;-2.742;2023-09-19T01:40:04;6.93;;;2.30;;
33862;SDS011;20158;51.436;-2.742;2023-09-19T01:42:57;8.50;;;2.58;;
33862;SDS011;20158;51.436;-2.742;2023-09-19T01:51:00;12.13;;;2.33;;
33862;SDS011;20158;51.436;-2.742;2023-09-19T01:56:23;9.50;;;2.75;;
33862;SDS011;20158;51.436;-2.742;2023-09-19T01:58:59;9.13;;;2.15;;
33862;SDS011;20158;51.436;-2.742;2023-09-19T02:01:31;10.85;;;2.88;;
33862;SDS011;20158;51.436;-2.742;2023-09-19T02:03:57;6.00;;;2.20;;
33862;SDS011;20158;51.436;-2.742;2023-09-19T02:06:24;6.88;;;2.40;;
33862;SDS011;20158;51.436;-2.742;2023-09-19T02:08:50;7.20;;;1.90;;
33862;SDS011;20158;51.436;-2.742;2023-09-19T02:11:16;7.00;;;1.83;;
33862;SDS011;20158;51.436;-2.742;2023-09-19T02:13:42;9.52;;;2.08;;
33862;SDS011;20158;51.436;-2.742;2023-09-19T02:16:09;10.50;;;3.08;;
33862;SDS011;20158;51.436;-2.742;2023-09-19T02:18:36;6.15;;;2.17;;
33862;SDS011;20158;51.436;-2.742;2023-09-19T02:21:02;8.73;;;1.88;;
33862;SDS011;20158;51.436;-2.742;2023-09-19T02:23:29;9.63;;;2.40;;
33862;SDS011;20158;51.436;-2.742;2023-09-19T02:25:56;7.38;;;2.05;;
33862;SDS011;20158;51.436;-2.742;2023-09-19T02:28:31;12.27;;;3.40;;
33862;SDS011;20158;51.436;-2.742;2023-09-19T02:30:58;9.20;;;2.35;;
33862;SDS011;20158;51.436;-2.742;2023-09-19T02:33:24;9.57;;;1.98;;
33862;SDS011;20158;51.436;-2.742;2023-09-19T02:35:56;7.88;;;1.80;;
33862;SDS011;20158;51.436;-2.742;2023-09-19T02:38:27;5.45;;;1.55;;
33862;SDS011;20158;51.436;-2.742;2023-09-19T02:40:54;8.15;;;2.33;;
33862;SDS011;20158;51.436;-2.742;2023-09-19T02:43:20;5.90;;;1.45;;
33862;SDS011;20158;51.436;-2.742;2023-09-19T02:45:47;6.47;;;2.17;;
33862;SDS011;20158;51.436;-2.742;2023-09-19T02:48:18;7.72;;;2.05;;
33862;SDS011;20158;51.436;-2.742;2023-09-19T02:50:45;6.65;;;1.98;;
33862;SDS011;20158;51.436;-2.742;2023-09-19T02:53:14;10.20;;;3.28;;
33862;SDS011;20158;51.436;-2.742;2023-09-19T02:55:46;9.75;;;2.20;;
33862;SDS011;20158;51.436;-2.742;2023-09-19T02:58:13;8.82;;;2.67;;
33862;SDS011;20158;51.436;-2.742;2023-09-19T03:00:51;7.25;;;2.55;;
33862;SDS011;20158;51.436;-2.742;2023-09-19T03:03:18;5.70;;;1.58;;
33862;SDS011;20158;51.436;-2.742;2023-09-19T03:05:44;9.93;;;2.75;;
33862;SDS011;20158;51.436;-2.742;2023-09-19T03:08:13;4.45;;;1.63;;
33862;SDS011;20158;51.436;-2.742;2023-09-19T03:10:45;10.63;;;2.63;;
33862;SDS011;20158;51.436;-2.742;2023-09-19T03:13:14;6.50;;;2.10;;
33862;SDS011;20158;51.436;-2.742;2023-09-19T03:15:41;7.38;;;1.55;;
33862;SDS011;20158;51.436;-2.742;2023-09-19T03:18:10;5.85;;;1.95;;
33862;SDS011;20158;51.436;-2.742;2023-09-19T03:20:37;6.85;;;2.28;;
33862;SDS011;20158;51.436;-2.742;2023-09-19T03:23:10;5.72;;;1.40;;
33862;SDS011;20158;51.436;-2.742;2023-09-19T03:25:36;4.88;;;1.50;;
33862;SDS011;20158;51.436;-2.742;2023-09-19T03:28:02;10.40;;;2.42;;
33862;SDS011;20158;51.436;-2.742;2023-09-19T03:30:31;7.70;;;2.63;;
33862;SDS011;20158;51.436;-2.742;2023-09-19T03:32:59;6.05;;;1.63;;
33862;SDS011;20158;51.436;-2.742;2023-09-19T03:35:26;8.73;;;1.65;;
33862;SDS011;20158;51.436;-2.742;2023-09-19T03:37:52;6.20;;;1.48;;
33862;SDS011;20158;51.436;-2.742;2023-09-19T03:40:18;10.98;;;2.70;;
33862;SDS011;20158;51.436;-2.742;2023-09-19T03:42:46;4.20;;;1.58;;
33862;SDS011;20158;51.436;-2.742;2023-09-19T03:45:13;8.15;;;1.90;;
33862;SDS011;20158;51.436;-2.742;2023-09-19T03:47:44;7.47;;;2.22;;
33862;SDS011;20158;51.436;-2.742;2023-09-19T03:50:13;9.68;;;2.55;;
33862;SDS011;20158;51.436;-2.742;2023-09-19T03:52:46;7.05;;;1.60;;
33862;SDS011;20158;51.436;-2.742;2023-09-19T03:55:12;6.40;;;1.67;;
33862;SDS011;20158;51.436;-2.742;2023-09-19T03:57:42;4.95;;;1.30;;
33862;SDS011;20158;51.436;-2.742;2023-09-19T04:00:14;12.23;;;2.90;;
33862;SDS011;20158;51.436;-2.742;2023-09-19T04:02:43;8.68;;;1.95;;
33862;SDS011;20158;51.436;-2.742;2023-09-19T04:05:11;5.45;;;1.30;;
33862;SDS011;20158;51.436;-2.742;2023-09-19T04:07:43;7.18;;;1.90;;
33862;SDS011;20158;51.436;-2.742;2023-09-19T04:10:09;5.43;;;1.25;;
33862;SDS011;20158;51.436;-2.742;2023-09-19T04:12:37;2.53;;;1.02;;
33862;SDS011;20158;51.436;-2.742;2023-09-19T04:15:06;4.25;;;1.52;;
33862;SDS011;20158;51.436;-2.742;2023-09-19T04:17:33;9.80;;;3.35;;
33862;SDS011;20158;51.436;-2.742;2023-09-19T04:19:59;5.30;;;1.58;;
33862;SDS011;20158;51.436;-2.742;2023-09-19T04:22:25;6.30;;;1.63;;
33862;SDS011;20158;51.436;-2.742;2023-09-19T04:24:51;6.97;;;1.48;;
33862;SDS011;20158;51.436;-2.742;2023-09-19T04:27:17;3.30;;;0.95;;
33862;SDS011;20158;51.436;-2.742;2023-09-19T04:29:44;6.07;;;1.40;;
33862;SDS011;20158;51.436;-2.742;2023-09-19T04:32:10;5.13;;;1.98;;
33862;SDS011;20158;51.436;-2.742;2023-09-19T04:34:36;5.57;;;1.30;;
33862;SDS011;20158;51.436;-2.742;2023-09-19T04:37:05;5.78;;;1.52;;
33862;SDS011;20158;51.436;-2.742;2023-09-19T04:39:31;5.30;;;1.30;;
33862;SDS011;20158;51.436;-2.742;2023-09-19T04:41:57;6.43;;;2.58;;
33862;SDS011;20158;51.436;-2.742;2023-09-19T04:44:24;6.40;;;2.28;;
33862;SDS011;20158;51.436;-2.742;2023-09-19T04:46:49;7.43;;;2.15;;
33862;SDS011;20158;51.436;-2.742;2023-09-19T04:49:16;6.18;;;1.27;;
33862;SDS011;20158;51.436;-2.742;2023-09-19T04:51:43;4.60;;;1.00;;
33862;SDS011;20158;51.436;-2.742;2023-09-19T04:54:12;3.30;;;1.38;;
33862;SDS011;20158;51.436;-2.742;2023-09-19T04:56:38;4.50;;;1.80;;
33862;SDS011;20158;51.436;-2.742;2023-09-19T04:59:05;4.88;;;1.23;;
33862;SDS011;20158;51.436;-2.742;2023-09-19T05:01:32;5.63;;;1.20;;
33862;SDS011;20158;51.436;-2.742;2023-09-19T05:03:58;5.88;;;1.17;;
33862;SDS011;20158;51.436;-2.742;2023-09-19T05:06:24;7.32;;;1.55;;
33862;SDS011;20158;51.436;-2.742;2023-09-19T05:08:51;3.85;;;1.50;;
33862;SDS011;20158;51.436;-2.742;2023-09-19T05:11:21;7.63;;;1.77;;
33862;SDS011;20158;51.436;-2.742;2023-09-19T05:13:48;4.95;;;1.48;;
33862;SDS011;20158;51.436;-2.742;2023-09-19T05:16:21;6.53;;;2.03;;
33862;SDS011;20158;51.436;-2.742;2023-09-19T05:18:47;2.38;;;0.93;;
33862;SDS011;20158;51.436;-2.742;2023-09-19T05:21:15;4.60;;;1.23;;
33862;SDS011;20158;51.436;-2.742;2023-09-19T05:23:41;4.97;;;1.75;;
33862;SDS011;20158;51.436;-2.742;2023-09-19T05:26:07;3.42;;;1.00;;
33862;SDS011;20158;51.436;-2.742;2023-09-19T05:28:33;4.30;;;1.20;;
33862;SDS011;20158;51.436;-2.742;2023-09-19T05:31:02;2.95;;;0.95;;
33862;SDS011;20158;51.436;-2.742;2023-09-19T05:33:28;2.22;;;0.95;;
33862;SDS011;20158;51.436;-2.742;2023-09-19T05:35:56;3.30;;;0.93;;
33862;SDS011;20158;51.436;-2.742;2023-09-19T05:38:22;4.57;;;0.75;;
33862;SDS011;20158;51.436;-2.742;2023-09-19T05:40:49;5.97;;;1.15;;
33862;SDS011;20158;51.436;-2.742;2023-09-19T05:43:15;5.80;;;1.10;;
33862;SDS011;20158;51.436;-2.742;2023-09-19T05:45:41;4.72;;;1.85;;
33862;SDS011;20158;51.436;-2.742;2023-09-19T05:48:13;3.53;;;0.93;;
33862;SDS011;20158;51.436;-2.742;2023-09-19T05:50:41;4.82;;;1.25;;
33862;SDS011;20158;51.436;-2.742;2023-09-19T05:53:08;6.10;;;1.30;;
33862;SDS011;20158;51.436;-2.742;2023-09-19T05:55:37;5.05;;;1.77;;
33862;SDS011;20158;51.436;-2.742;2023-09-19T05:58:03;6.53;;;1.60;;
33862;SDS011;20158;51.436;-2.742;2023-09-19T06:00:29;5.15;;;1.70;;
33862;SDS011;20158;51.436;-2.742;2023-09-19T06:02:58;8.32;;;2.60;;
33862;SDS011;20158;51.436;-2.742;2023-09-19T06:05:25;8.95;;;2.55;;
33862;SDS011;20158;51.436;-2.742;2023-09-19T06:07:58;6.95;;;1.80;;
33862;SDS011;20158;51.436;-2.742;2023-09-19T06:10:25;5.68;;;2.10;;
33862;SDS011;20158;51.436;-2.742;2023-09-19T06:12:53;7.88;;;2.28;;
33862;SDS011;20158;51.436;-2.742;2023-09-19T06:15:20;5.85;;;1.95;;
33862;SDS011;20158;51.436;-2.742;2023-09-19T06:17:53;6.07;;;1.88;;
33862;SDS011;20158;51.436;-2.742;2023-09-19T06:20:20;8.48;;;1.73;;
33862;SDS011;20158;51.436;-2.742;2023-09-19T06:22:48;8.20;;;2.10;;
33862;SDS011;20158;51.436;-2.742;2023-09-19T06:25:15;5.65;;;2.13;;
33862;SDS011;20158;51.436;-2.742;2023-09-19T06:27:48;7.50;;;2.30;;
33862;SDS011;20158;51.436;-2.742;2023-09-19T06:30:17;6.47;;;2.20;;
33862;SDS011;20158;51.436;-2.742;2023-09-19T06:32:46;10.05;;;3.50;;
33862;SDS011;20158;51.436;-2.742;2023-09-19T06:35:13;8.98;;;2.80;;
33862;SDS011;20158;51.436;-2.742;2023-09-19T06:37:40;5.35;;;1.98;;
33862;SDS011;20158;51.436;-2.742;2023-09-19T06:40:09;7.57;;;3.03;;
33862;SDS011;20158;51.436;-2.742;2023-09-19T06:43:12;10.82;;;2.50;;
33862;SDS011;20158;51.436;-2.742;2023-09-19T06:45:32;9.05;;;3.33;;
33862;SDS011;20158;51.436;-2.742;2023-09-19T06:47:58;8.25;;;2.53;;
33862;SDS011;20158;51.436;-2.742;2023-09-19T06:50:25;5.70;;;2.25;;
33862;SDS011;20158;51.436;-2.742;2023-09-19T06:52:52;7.13;;;2.92;;
33862;SDS011;20158;51.436;-2.742;2023-09-19T06:55:20;7.47;;;2.20;;
33862;SDS011;20158;51.436;-2.742;2023-09-19T06:57:50;7.45;;;2.70;;
33862;SDS011;20158;51.436;-2.742;2023-09-19T07:00:19;7.25;;;2.40;;
33862;SDS011;20158;51.436;-2.742;2023-09-19T07:03:04;8.27;;;2.47;;
33862;SDS011;20158;51.436;-2.742;2023-09-19T07:05:36;8.90;;;2.90;;
33862;SDS011;20158;51.436;-2.742;2023-09-19T07:08:02;7.50;;;2.50;;
33862;SDS011;20158;51.436;-2.742;2023-09-19T07:10:29;9.35;;;3.53;;
33862;SDS011;20158;51.436;-2.742;2023-09-19T07:12:59;8.23;;;2.97;;
33862;SDS011;20158;51.436;-2.742;2023-09-19T07:15:27;7.60;;;2.72;;
33862;SDS011;20158;51.436;-2.742;2023-09-19T07:17:56;10.85;;;3.40;;
33862;SDS011;20158;51.436;-2.742;2023-09-19T07:20:23;12.60;;;3.20;;
33862;SDS011;20158;51.436;-2.742;2023-09-19T07:22:55;10.57;;;3.20;;
33862;SDS011;20158;51.436;-2.742;2023-09-19T07:25:21;9.07;;;3.22;;
33862;SDS011;20158;51.436;-2.742;2023-09-19T07:27:47;7.32;;;2.92;;
33862;SDS011;20158;51.436;-2.742;2023-09-19T07:30:13;8.15;;;4.03;;
33862;SDS011;20158;51.436;-2.742;2023-09-19T07:32:41;8.65;;;3.42;;
33862;SDS011;20158;51.436;-2.742;2023-09-19T07:35:07;8.15;;;2.53;;
33862;SDS011;20158;51.436;-2.742;2023-09-19T07:37:34;9.05;;;2.95;;
33862;SDS011;20158;51.436;-2.742;2023-09-19T07:40:02;7.75;;;2.40;;
33862;SDS011;20158;51.436;-2.742;2023-09-19T07:42:33;7.03;;;2.45;;
33862;SDS011;20158;51.436;-2.742;2023-09-19T07:45:01;7.43;;;3.05;;
33862;SDS011;20158;51.436;-2.742;2023-09-19T07:47:27;6.43;;;3.42;;
33862;SDS011;20158;51.436;-2.742;2023-09-19T07:49:59;10.35;;;3.22;;
33862;SDS011;20158;51.436;-2.742;2023-09-19T07:52:28;8.35;;;2.65;;
33862;SDS011;20158;51.436;-2.742;2023-09-19T07:54:54;8.02;;;3.15;;
33862;SDS011;20158;51.436;-2.742;2023-09-19T07:57:22;7.43;;;3.08;;
33862;SDS011;20158;51.436;-2.742;2023-09-19T07:59:48;12.43;;;3.85;;
33862;SDS011;20158;51.436;-2.742;2023-09-19T08:02:14;8.20;;;3.08;;
33862;SDS011;20158;51.436;-2.742;2023-09-19T08:04:44;9.85;;;2.75;;
33862;SDS011;20158;51.436;-2.742;2023-09-19T08:07:14;14.60;;;5.55;;
33862;SDS011;20158;51.436;-2.742;2023-09-19T08:09:40;6.43;;;2.53;;
33862;SDS011;20158;51.436;-2.742;2023-09-19T08:12:07;11.40;;;4.63;;
33862;SDS011;20158;51.436;-2.742;2023-09-19T08:14:36;13.00;;;3.90;;
33862;SDS011;20158;51.436;-2.742;2023-09-19T08:17:03;9.10;;;3.40;;
33862;SDS011;20158;51.436;-2.742;2023-09-19T08:19:33;9.85;;;2.80;;
33862;SDS011;20158;51.436;-2.742;2023-09-19T08:21:59;9.48;;;3.20;;
33862;SDS011;20158;51.436;-2.742;2023-09-19T08:24:27;8.45;;;3.30;;
33862;SDS011;20158;51.436;-2.742;2023-09-19T08:26:57;8.15;;;3.00;;
33862;SDS011;20158;51.436;-2.742;2023-09-19T08:29:24;9.63;;;3.10;;
33862;SDS011;20158;51.436;-2.742;2023-09-19T08:31:56;9.73;;;3.85;;
33862;SDS011;20158;51.436;-2.742;2023-09-19T08:34:26;10.23;;;2.75;;
33862;SDS011;20158;51.436;-2.742;2023-09-19T08:36:53;7.53;;;2.83;;
33862;SDS011;20158;51.436;-2.742;2023-09-19T08:39:23;4.95;;;2.50;;
33862;SDS011;20158;51.436;-2.742;2023-09-19T08:41:49;9.18;;;2.88;;
33862;SDS011;20158;51.436;-2.742;2023-09-19T08:44:25;9.75;;;3.60;;
33862;SDS011;20158;51.436;-2.742;2023-09-19T08:46:54;27.30;;;4.25;;
33862;SDS011;20158;51.436;-2.742;2023-09-19T08:49:33;7.45;;;3.05;;
33862;SDS011;20158;51.436;-2.742;2023-09-19T08:52:10;6.47;;;2.70;;
33862;SDS011;20158;51.436;-2.742;2023-09-19T08:57:18;6.82;;;2.92;;
33862;SDS011;20158;51.436;-2.742;2023-09-19T08:59:48;8.48;;;3.33;;
33862;SDS011;20158;51.436;-2.742;2023-09-19T09:02:17;10.05;;;3.03;;
33862;SDS011;20158;51.436;-2.742;2023-09-19T09:04:45;7.60;;;3.20;;
33862;SDS011;20158;51.436;-2.742;2023-09-19T09:07:13;8.15;;;3.00;;
33862;SDS011;20158;51.436;-2.742;2023-09-19T09:09:39;8.27;;;2.75;;
33862;SDS011;20158;51.436;-2.742;2023-09-19T09:12:11;8.43;;;2.50;;
33862;SDS011;20158;51.436;-2.742;2023-09-19T09:14:48;4.72;;;2.40;;
33862;SDS011;20158;51.436;-2.742;2023-09-19T09:17:15;8.52;;;3.70;;
33862;SDS011;20158;51.436;-2.742;2023-09-19T09:19:48;8.02;;;2.30;;
33862;SDS011;20158;51.436;-2.742;2023-09-19T09:22:14;6.53;;;2.63;;
33862;SDS011;20158;51.436;-2.742;2023-09-19T09:24:56;7.93;;;3.15;;
33862;SDS011;20158;51.436;-2.742;2023-09-19T09:27:30;6.80;;;2.50;;
33862;SDS011;20158;51.436;-2.742;2023-09-19T09:29:58;6.97;;;4.07;;
33862;SDS011;20158;51.436;-2.742;2023-09-19T09:32:27;10.98;;;3.70;;
33862;SDS011;20158;51.436;-2.742;2023-09-19T09:34:55;6.95;;;2.97;;
33862;SDS011;20158;51.436;-2.742;2023-09-19T09:37:23;8.48;;;2.80;;
33862;SDS011;20158;51.436;-2.742;2023-09-19T09:39:52;7.35;;;2.75;;
33862;SDS011;20158;51.436;-2.742;2023-09-19T09:42:30;8.75;;;2.42;;
33862;SDS011;20158;51.436;-2.742;2023-09-19T09:48:10;7.15;;;2.67;;
33862;SDS011;20158;51.436;-2.742;2023-09-19T09:50:47;6.43;;;2.58;;
33862;SDS011;20158;51.436;-2.742;2023-09-19T09:53:23;4.00;;;2.10;;
33862;SDS011;20158;51.436;-2.742;2023-09-19T09:58:33;4.40;;;2.20;;
33862;SDS011;20158;51.436;-2.742;2023-09-19T10:01:04;4.45;;;2.28;;
33862;SDS011;20158;51.436;-2.742;2023-09-19T10:03:40;6.40;;;2.03;;
33862;SDS011;20158;51.436;-2.742;2023-09-19T10:06:10;9.88;;;3.17;;
33862;SDS011;20158;51.436;-2.742;2023-09-19T10:11:31;4.72;;;1.98;;
33862;SDS011;20158;51.436;-2.742;2023-09-19T10:14:00;4.95;;;1.92;;
33862;SDS011;20158;51.436;-2.742;2023-09-19T10:16:31;3.85;;;1.63;;
33862;SDS011;20158;51.436;-2.742;2023-09-19T10:19:02;4.15;;;1.48;;
33862;SDS011;20158;51.436;-2.742;2023-09-19T10:21:33;2.95;;;1.77;;
33862;SDS011;20158;51.436;-2.742;2023-09-19T10:24:02;4.40;;;1.98;;
33862;SDS011;20158;51.436;-2.742;2023-09-19T10:26:34;5.13;;;1.67;;
33862;SDS011;20158;51.436;-2.742;2023-09-19T10:29:07;4.35;;;1.73;;
33862;SDS011;20158;51.436;-2.742;2023-09-19T10:31:35;3.83;;;1.45;;
33862;SDS011;20158;51.436;-2.742;2023-09-19T10:34:06;4.57;;;1.30;;
33862;SDS011;20158;51.436;-2.742;2023-09-19T10:36:35;3.42;;;1.90;;
33862;SDS011;20158;51.436;-2.742;2023-09-19T10:39:03;3.50;;;1.13;;
33862;SDS011;20158;51.436;-2.742;2023-09-19T10:41:37;2.25;;;1.27;;
33862;SDS011;20158;51.436;-2.742;2023-09-19T10:44:05;3.17;;;1.42;;
33862;SDS011;20158;51.436;-2.742;2023-09-19T10:46:34;3.85;;;1.40;;
33862;SDS011;20158;51.436;-2.742;2023-09-19T10:49:02;3.25;;;1.35;;
33862;SDS011;20158;51.436;-2.742;2023-09-19T10:51:29;2.88;;;1.20;;
33862;SDS011;20158;51.436;-2.742;2023-09-19T10:54:11;3.20;;;1.20;;
33862;SDS011;20158;51.436;-2.742;2023-09-19T10:56:46;2.33;;;0.80;;
33862;SDS011;20158;51.436;-2.742;2023-09-19T10:59:17;2.45;;;1.20;;
33862;SDS011;20158;51.436;-2.742;2023-09-19T11:01:56;3.25;;;1.30;;
33862;SDS011;20158;51.436;-2.742;2023-09-19T11:04:26;2.65;;;1.45;;
33862;SDS011;20158;51.436;-2.742;2023-09-19T11:07:10;2.13;;;1.13;;
33862;SDS011;20158;51.436;-2.742;2023-09-19T11:09:50;1.83;;;0.90;;
33862;SDS011;20158;51.436;-2.742;2023-09-19T11:14:56;1.45;;;0.95;;
33862;SDS011;20158;51.436;-2.742;2023-09-19T11:17:30;1.25;;;0.90;;
33862;SDS011;20158;51.436;-2.742;2023-09-19T11:30:31;9.32;;;2.10;;
33862;SDS011;20158;51.436;-2.742;2023-09-19T11:35:59;10.35;;;2.28;;
33862;SDS011;20158;51.436;-2.742;2023-09-19T11:47:08;10.60;;;6.85;;
33862;SDS011;20158;51.436;-2.742;2023-09-19T11:49:19;19.05;;;5.53;;
33862;SDS011;20158;51.436;-2.742;2023-09-19T11:51:52;10.48;;;5.18;;
33862;SDS011;20158;51.436;-2.742;2023-09-19T11:54:18;9.52;;;3.67;;
33862;SDS011;20158;51.436;-2.742;2023-09-19T11:56:48;15.20;;;5.20;;
33862;SDS011;20158;51.436;-2.742;2023-09-19T11:59:31;5.82;;;3.03;;
33862;SDS011;20158;51.436;-2.742;2023-09-19T12:02:03;8.05;;;3.72;;
33862;SDS011;20158;51.436;-2.742;2023-09-19T12:07:07;8.07;;;3.13;;
33862;SDS011;20158;51.436;-2.742;2023-09-19T12:09:41;6.45;;;2.22;;
33862;SDS011;20158;51.436;-2.742;2023-09-19T12:12:13;8.45;;;2.70;;
33862;SDS011;20158;51.436;-2.742;2023-09-19T12:14:54;5.70;;;2.40;;
33862;SDS011;20158;51.436;-2.742;2023-09-19T12:17:22;8.93;;;2.70;;
33862;SDS011;20158;51.436;-2.742;2023-09-19T12:19:50;8.73;;;2.10;;
33862;SDS011;20158;51.436;-2.742;2023-09-19T12:22:17;7.97;;;2.78;;
33862;SDS011;20158;51.436;-2.742;2023-09-19T12:24:44;5.65;;;1.80;;
33862;SDS011;20158;51.436;-2.742;2023-09-19T12:27:11;4.65;;;2.25;;
33862;SDS011;20158;51.436;-2.742;2023-09-19T12:29:44;7.03;;;2.95;;
33862;SDS011;20158;51.436;-2.742;2023-09-19T12:32:15;4.40;;;1.75;;
33862;SDS011;20158;51.436;-2.742;2023-09-19T12:34:52;3.80;;;1.65;;
33862;SDS011;20158;51.436;-2.742;2023-09-19T12:37:19;2.53;;;1.52;;
33862;SDS011;20158;51.436;-2.742;2023-09-19T12:39:48;4.70;;;2.03;;
33862;SDS011;20158;51.436;-2.742;2023-09-19T12:42:23;4.80;;;2.05;;
33862;SDS011;20158;51.436;-2.742;2023-09-19T12:44:53;4.47;;;1.55;;
33862;SDS011;20158;51.436;-2.742;2023-09-19T12:47:26;4.80;;;1.83;;
33862;SDS011;20158;51.436;-2.742;2023-09-19T12:50:05;3.92;;;1.50;;
33862;SDS011;20158;51.436;-2.742;2023-09-19T12:52:47;4.40;;;1.20;;
33862;SDS011;20158;51.436;-2.742;2023-09-19T12:55:28;2.88;;;1.40;;
33862;SDS011;20158;51.436;-2.742;2023-09-19T12:58:03;3.22;;;1.55;;
33862;SDS011;20158;51.436;-2.742;2023-09-19T13:00:33;2.72;;;1.10;;
33862;SDS011;20158;51.436;-2.742;2023-09-19T13:06:06;3.33;;;1.30;;
33862;SDS011;20158;51.436;-2.742;2023-09-19T13:08:33;3.08;;;1.38;;
33862;SDS011;20158;51.436;-2.742;2023-09-19T13:16:06;5.95;;;2.78;;
33862;SDS011;20158;51.436;-2.742;2023-09-19T13:18:44;5.65;;;2.03;;
33862;SDS011;20158;51.436;-2.742;2023-09-19T13:21:17;4.82;;;1.58;;
33862;SDS011;20158;51.436;-2.742;2023-09-19T13:23:53;8.48;;;2.05;;
33862;SDS011;20158;51.436;-2.742;2023-09-19T13:26:25;4.65;;;1.70;;
33862;SDS011;20158;51.436;-2.742;2023-09-19T13:28:51;5.88;;;2.17;;
33862;SDS011;20158;51.436;-2.742;2023-09-19T13:31:20;7.05;;;2.20;;
33862;SDS011;20158;51.436;-2.742;2023-09-19T13:33:47;6.65;;;2.38;;
33862;SDS011;20158;51.436;-2.742;2023-09-19T13:36:14;6.95;;;2.67;;
33862;SDS011;20158;51.436;-2.742;2023-09-19T13:38:43;7.13;;;2.65;;
33862;SDS011;20158;51.436;-2.742;2023-09-19T13:41:09;8.27;;;2.55;;
33862;SDS011;20158;51.436;-2.742;2023-09-19T13:43:36;12.90;;;2.60;;
33862;SDS011;20158;51.436;-2.742;2023-09-19T13:46:06;11.48;;;3.35;;
33862;SDS011;20158;51.436;-2.742;2023-09-19T13:48:40;11.43;;;2.55;;
33862;SDS011;20158;51.436;-2.742;2023-09-19T13:51:06;6.78;;;2.70;;
33862;SDS011;20158;51.436;-2.742;2023-09-19T13:53:32;5.70;;;2.20;;
33862;SDS011;20158;51.436;-2.742;2023-09-19T13:55:59;6.22;;;1.98;;
33862;SDS011;20158;51.436;-2.742;2023-09-19T13:58:25;7.13;;;2.70;;
33862;SDS011;20158;51.436;-2.742;2023-09-19T14:00:56;8.45;;;2.65;;
33862;SDS011;20158;51.436;-2.742;2023-09-19T14:03:23;11.15;;;3.30;;
33862;SDS011;20158;51.436;-2.742;2023-09-19T14:05:49;10.15;;;2.70;;
33862;SDS011;20158;51.436;-2.742;2023-09-19T14:08:16;9.52;;;2.20;;
33862;SDS011;20158;51.436;-2.742;2023-09-19T14:10:42;6.50;;;2.80;;
33862;SDS011;20158;51.436;-2.742;2023-09-19T14:13:08;7.78;;;2.10;;
33862;SDS011;20158;51.436;-2.742;2023-09-19T14:15:36;6.00;;;1.90;;
33862;SDS011;20158;51.436;-2.742;2023-09-19T14:18:04;6.70;;;2.70;;
33862;SDS011;20158;51.436;-2.742;2023-09-19T14:20:30;4.85;;;2.00;;
33862;SDS011;20158;51.436;-2.742;2023-09-19T14:22:57;6.55;;;2.53;;
33862;SDS011;20158;51.436;-2.742;2023-09-19T14:27:55;3.63;;;1.52;;
33862;SDS011;20158;51.436;-2.742;2023-09-19T14:30:22;3.97;;;1.23;;
33862;SDS011;20158;51.436;-2.742;2023-09-19T14:32:49;7.65;;;1.73;;
33862;SDS011;20158;51.436;-2.742;2023-09-19T14:35:15;4.15;;;1.50;;
33862;SDS011;20158;51.436;-2.742;2023-09-19T14:37:41;4.22;;;1.77;;
33862;SDS011;20158;51.436;-2.742;2023-09-19T14:40:08;2.60;;;1.30;;
33862;SDS011;20158;51.436;-2.742;2023-09-19T14:42:36;2.90;;;0.82;;
33862;SDS011;20158;51.436;-2.742;2023-09-19T14:45:09;4.60;;;1.17;;
33862;SDS011;20158;51.436;-2.742;2023-09-19T14:47:39;4.13;;;1.10;;
33862;SDS011;20158;51.436;-2.742;2023-09-19T14:50:06;5.35;;;1.30;;
33862;SDS011;20158;51.436;-2.742;2023-09-19T14:52:32;3.40;;;1.40;;
33862;SDS011;20158;51.436;-2.742;2023-09-19T14:55:00;2.28;;;0.90;;
33862;SDS011;20158;51.436;-2.742;2023-09-19T14:57:27;4.60;;;1.75;;
33862;SDS011;20158;51.436;-2.742;2023-09-19T14:59:53;3.08;;;1.67;;
33862;SDS011;20158;51.436;-2.742;2023-09-19T15:02:20;4.28;;;1.33;;
33862;SDS011;20158;51.436;-2.742;2023-09-19T15:04:46;5.18;;;0.88;;
33862;SDS011;20158;51.436;-2.742;2023-09-19T15:07:15;5.82;;;1.75;;
33862;SDS011;20158;51.436;-2.742;2023-09-19T15:09:41;3.63;;;1.10;;
33862;SDS011;20158;51.436;-2.742;2023-09-19T15:12:09;3.90;;;1.30;;
33862;SDS011;20158;51.436;-2.742;2023-09-19T15:14:40;4.28;;;0.98;;
33862;SDS011;20158;51.436;-2.742;2023-09-19T15:17:07;3.70;;;1.30;;
33862;SDS011;20158;51.436;-2.742;2023-09-19T15:19:34;3.13;;;1.13;;
33862;SDS011;20158;51.436;-2.742;2023-09-19T15:22:00;5.72;;;1.73;;
33862;SDS011;20158;51.436;-2.742;2023-09-19T15:24:26;5.20;;;1.65;;
33862;SDS011;20158;51.436;-2.742;2023-09-19T15:26:53;6.82;;;2.70;;
33862;SDS011;20158;51.436;-2.742;2023-09-19T15:29:20;3.20;;;1.60;;
33862;SDS011;20158;51.436;-2.742;2023-09-19T15:31:47;4.53;;;1.80;;
33862;SDS011;20158;51.436;-2.742;2023-09-19T15:34:14;6.03;;;2.22;;
33862;SDS011;20158;51.436;-2.742;2023-09-19T15:36:41;8.35;;;1.95;;
33862;SDS011;20158;51.436;-2.742;2023-09-19T15:39:10;9.45;;;1.90;;
33862;SDS011;20158;51.436;-2.742;2023-09-19T15:41:40;5.45;;;1.73;;
33862;SDS011;20158;51.436;-2.742;2023-09-19T15:44:17;4.22;;;1.65;;
33862;SDS011;20158;51.436;-2.742;2023-09-19T15:46:46;4.78;;;1.80;;
33862;SDS011;20158;51.436;-2.742;2023-09-19T15:49:13;2.72;;;1.30;;
33862;SDS011;20158;51.436;-2.742;2023-09-19T15:51:39;4.75;;;1.33;;
33862;SDS011;20158;51.436;-2.742;2023-09-19T15:54:09;3.92;;;1.52;;